sensor_id;sensor_type;location;lat;lon;timestamp;P1;durP1;ratioP1;P2;durP2;ratioP2
35364;SDS011;21464;48.112;11.530;2023-08-06T00:00:37;6.30;;;5.70;;
35364;SDS011;21464;48.112;11.530;2023-08-06T00:03:04;5.80;;;5.30;;
35364;SDS011;21464;48.112;11.530;2023-08-06T00:05:30;5.63;;;5.13;;
35364;SDS011;21464;48.112;11.530;2023-08-06T00:07:56;5.97;;;5.43;;
35364;SDS011;21464;48.112;11.530;2023-08-06T00:10:22;5.88;;;5.18;;
35364;SDS011;21464;48.112;11.530;2023-08-06T00:12:48;5.28;;;4.63;;
35364;SDS011;21464;48.112;11.530;2023-08-06T00:15:15;5.30;;;4.80;;
35364;SDS011;21464;48.112;11.530;2023-08-06T00:17:41;5.22;;;4.63;;
35364;SDS011;21464;48.112;11.530;2023-08-06T00:20:07;5.10;;;4.70;;
35364;SDS011;21464;48.112;11.530;2023-08-06T00:22:37;6.47;;;4.53;;
35364;SDS011;21464;48.112;11.530;2023-08-06T00:25:04;4.80;;;4.40;;
35364;SDS011;21464;48.112;11.530;2023-08-06T00:27:31;4.95;;;4.45;;
35364;SDS011;21464;48.112;11.530;2023-08-06T00:30:00;5.55;;;4.75;;
35364;SDS011;21464;48.112;11.530;2023-08-06T00:32:28;4.20;;;3.90;;
35364;SDS011;21464;48.112;11.530;2023-08-06T00:34:54;4.28;;;3.97;;
35364;SDS011;21464;48.112;11.530;2023-08-06T00:37:20;3.63;;;3.40;;
35364;SDS011;21464;48.112;11.530;2023-08-06T00:39:47;4.32;;;4.03;;
35364;SDS011;21464;48.112;11.530;2023-08-06T00:42:13;3.88;;;3.58;;
35364;SDS011;21464;48.112;11.530;2023-08-06T00:44:39;3.92;;;3.63;;
35364;SDS011;21464;48.112;11.530;2023-08-06T00:47:08;4.05;;;3.75;;
35364;SDS011;21464;48.112;11.530;2023-08-06T00:49:37;3.35;;;3.15;;
35364;SDS011;21464;48.112;11.530;2023-08-06T00:52:05;3.50;;;3.20;;
35364;SDS011;21464;48.112;11.530;2023-08-06T00:54:31;3.85;;;3.55;;
35364;SDS011;21464;48.112;11.530;2023-08-06T00:56:58;4.00;;;3.60;;
35364;SDS011;21464;48.112;11.530;2023-08-06T00:59:25;4.93;;;4.07;;
35364;SDS011;21464;48.112;11.530;2023-08-06T01:01:51;4.57;;;3.80;;
35364;SDS011;21464;48.112;11.530;2023-08-06T01:04:18;5.95;;;4.10;;
35364;SDS011;21464;48.112;11.530;2023-08-06T01:06:47;5.25;;;4.85;;
35364;SDS011;21464;48.112;11.530;2023-08-06T01:09:31;5.88;;;5.15;;
35364;SDS011;21464;48.112;11.530;2023-08-06T01:15:13;6.72;;;5.30;;
35364;SDS011;21464;48.112;11.530;2023-08-06T01:17:42;6.00;;;5.40;;
35364;SDS011;21464;48.112;11.530;2023-08-06T01:20:08;6.65;;;6.00;;
35364;SDS011;21464;48.112;11.530;2023-08-06T01:22:35;6.30;;;5.70;;
35364;SDS011;21464;48.112;11.530;2023-08-06T01:25:01;8.75;;;6.32;;
35364;SDS011;21464;48.112;11.530;2023-08-06T01:27:33;6.10;;;5.60;;
35364;SDS011;21464;48.112;11.530;2023-08-06T01:30:12;6.93;;;5.30;;
35364;SDS011;21464;48.112;11.530;2023-08-06T01:32:44;6.15;;;5.60;;
35364;SDS011;21464;48.112;11.530;2023-08-06T01:35:12;5.95;;;5.40;;
35364;SDS011;21464;48.112;11.530;2023-08-06T01:37:41;6.00;;;5.40;;
35364;SDS011;21464;48.112;11.530;2023-08-06T01:40:11;5.78;;;5.28;;
35364;SDS011;21464;48.112;11.530;2023-08-06T01:42:38;6.72;;;6.13;;
35364;SDS011;21464;48.112;11.530;2023-08-06T01:45:05;5.93;;;5.40;;
35364;SDS011;21464;48.112;11.530;2023-08-06T01:47:32;6.03;;;5.47;;
35364;SDS011;21464;48.112;11.530;2023-08-06T01:49:59;5.60;;;5.10;;
35364;SDS011;21464;48.112;11.530;2023-08-06T01:52:26;5.47;;;4.97;;
35364;SDS011;21464;48.112;11.530;2023-08-06T01:54:53;5.45;;;5.05;;
35364;SDS011;21464;48.112;11.530;2023-08-06T01:57:19;5.50;;;5.00;;
35364;SDS011;21464;48.112;11.530;2023-08-06T01:59:46;5.85;;;5.25;;
35364;SDS011;21464;48.112;11.530;2023-08-06T02:02:12;5.00;;;4.60;;
35364;SDS011;21464;48.112;11.530;2023-08-06T02:04:38;4.90;;;4.40;;
35364;SDS011;21464;48.112;11.530;2023-08-06T02:07:05;4.43;;;3.97;;
35364;SDS011;21464;48.112;11.530;2023-08-06T02:09:31;5.82;;;4.97;;
35364;SDS011;21464;48.112;11.530;2023-08-06T02:11:57;4.55;;;4.15;;
35364;SDS011;21464;48.112;11.530;2023-08-06T02:14:24;4.70;;;4.30;;
35364;SDS011;21464;48.112;11.530;2023-08-06T02:16:50;4.00;;;3.60;;
35364;SDS011;21464;48.112;11.530;2023-08-06T02:19:16;3.92;;;3.63;;
35364;SDS011;21464;48.112;11.530;2023-08-06T02:21:43;4.05;;;3.50;;
35364;SDS011;21464;48.112;11.530;2023-08-06T02:24:09;4.53;;;3.60;;
35364;SDS011;21464;48.112;11.530;2023-08-06T02:26:35;3.72;;;3.40;;
35364;SDS011;21464;48.112;11.530;2023-08-06T02:29:01;3.72;;;3.42;;
35364;SDS011;21464;48.112;11.530;2023-08-06T02:31:27;3.53;;;3.22;;
35364;SDS011;21464;48.112;11.530;2023-08-06T02:33:54;3.55;;;3.28;;
35364;SDS011;21464;48.112;11.530;2023-08-06T02:36:20;4.13;;;3.75;;
35364;SDS011;21464;48.112;11.530;2023-08-06T02:38:46;3.83;;;3.20;;
35364;SDS011;21464;48.112;11.530;2023-08-06T02:41:12;3.70;;;3.40;;
35364;SDS011;21464;48.112;11.530;2023-08-06T02:43:39;3.65;;;3.35;;
35364;SDS011;21464;48.112;11.530;2023-08-06T02:46:06;4.28;;;3.40;;
35364;SDS011;21464;48.112;11.530;2023-08-06T02:48:33;3.38;;;3.15;;
35364;SDS011;21464;48.112;11.530;2023-08-06T02:50:59;3.72;;;3.45;;
35364;SDS011;21464;48.112;11.530;2023-08-06T02:53:27;3.55;;;3.22;;
35364;SDS011;21464;48.112;11.530;2023-08-06T02:55:53;3.47;;;3.17;;
35364;SDS011;21464;48.112;11.530;2023-08-06T02:58:26;3.42;;;3.17;;
35364;SDS011;21464;48.112;11.530;2023-08-06T03:01:04;3.50;;;3.25;;
35364;SDS011;21464;48.112;11.530;2023-08-06T03:03:40;3.35;;;3.15;;
35364;SDS011;21464;48.112;11.530;2023-08-06T03:06:07;3.60;;;3.30;;
35364;SDS011;21464;48.112;11.530;2023-08-06T03:08:40;3.58;;;3.00;;
35364;SDS011;21464;48.112;11.530;2023-08-06T03:11:07;4.32;;;3.38;;
35364;SDS011;21464;48.112;11.530;2023-08-06T03:13:34;3.38;;;3.00;;
35364;SDS011;21464;48.112;11.530;2023-08-06T03:16:01;2.97;;;2.75;;
35364;SDS011;21464;48.112;11.530;2023-08-06T03:18:29;2.75;;;2.45;;
35364;SDS011;21464;48.112;11.530;2023-08-06T03:20:58;3.65;;;3.15;;
35364;SDS011;21464;48.112;11.530;2023-08-06T03:23:28;3.30;;;3.00;;
35364;SDS011;21464;48.112;11.530;2023-08-06T03:25:54;3.30;;;3.00;;
35364;SDS011;21464;48.112;11.530;2023-08-06T03:28:21;3.90;;;3.00;;
35364;SDS011;21464;48.112;11.530;2023-08-06T03:30:48;3.78;;;3.45;;
35364;SDS011;21464;48.112;11.530;2023-08-06T03:33:30;3.92;;;3.30;;
35364;SDS011;21464;48.112;11.530;2023-08-06T03:35:58;3.53;;;3.13;;
35364;SDS011;21464;48.112;11.530;2023-08-06T03:38:25;3.65;;;3.30;;
35364;SDS011;21464;48.112;11.530;2023-08-06T03:40:56;2.97;;;2.78;;
35364;SDS011;21464;48.112;11.530;2023-08-06T03:43:25;3.03;;;2.83;;
35364;SDS011;21464;48.112;11.530;2023-08-06T03:45:52;2.70;;;2.50;;
35364;SDS011;21464;48.112;11.530;2023-08-06T03:48:18;3.03;;;2.83;;
35364;SDS011;21464;48.112;11.530;2023-08-06T03:50:44;4.72;;;2.80;;
35364;SDS011;21464;48.112;11.530;2023-08-06T03:53:13;3.17;;;2.83;;
35364;SDS011;21464;48.112;11.530;2023-08-06T03:55:40;2.78;;;2.58;;
35364;SDS011;21464;48.112;11.530;2023-08-06T03:58:06;2.85;;;2.65;;
35364;SDS011;21464;48.112;11.530;2023-08-06T04:00:32;2.75;;;2.55;;
35364;SDS011;21464;48.112;11.530;2023-08-06T04:02:58;2.75;;;2.55;;
35364;SDS011;21464;48.112;11.530;2023-08-06T04:05:25;2.80;;;2.60;;
35364;SDS011;21464;48.112;11.530;2023-08-06T04:07:51;2.92;;;2.60;;
35364;SDS011;21464;48.112;11.530;2023-08-06T04:10:17;2.88;;;2.67;;
35364;SDS011;21464;48.112;11.530;2023-08-06T04:12:43;3.85;;;2.60;;
35364;SDS011;21464;48.112;11.530;2023-08-06T04:15:09;3.10;;;2.60;;
35364;SDS011;21464;48.112;11.530;2023-08-06T04:17:36;2.58;;;2.35;;
35364;SDS011;21464;48.112;11.530;2023-08-06T04:20:02;2.90;;;2.53;;
35364;SDS011;21464;48.112;11.530;2023-08-06T04:22:29;2.55;;;2.35;;
35364;SDS011;21464;48.112;11.530;2023-08-06T04:24:55;2.70;;;2.50;;
35364;SDS011;21464;48.112;11.530;2023-08-06T04:27:21;3.88;;;2.40;;
35364;SDS011;21464;48.112;11.530;2023-08-06T04:29:48;3.22;;;2.95;;
35364;SDS011;21464;48.112;11.530;2023-08-06T04:32:15;2.78;;;2.55;;
35364;SDS011;21464;48.112;11.530;2023-08-06T04:34:46;5.30;;;2.83;;
35364;SDS011;21464;48.112;11.530;2023-08-06T04:37:14;2.78;;;2.58;;
35364;SDS011;21464;48.112;11.530;2023-08-06T04:39:40;2.50;;;2.30;;
35364;SDS011;21464;48.112;11.530;2023-08-06T04:42:06;2.60;;;2.40;;
35364;SDS011;21464;48.112;11.530;2023-08-06T04:44:32;2.72;;;2.53;;
35364;SDS011;21464;48.112;11.530;2023-08-06T04:46:59;2.70;;;2.50;;
35364;SDS011;21464;48.112;11.530;2023-08-06T04:49:25;2.70;;;2.50;;
35364;SDS011;21464;48.112;11.530;2023-08-06T04:51:51;2.60;;;2.40;;
35364;SDS011;21464;48.112;11.530;2023-08-06T04:54:17;2.60;;;2.40;;
35364;SDS011;21464;48.112;11.530;2023-08-06T04:56:43;3.63;;;2.58;;
35364;SDS011;21464;48.112;11.530;2023-08-06T04:59:10;2.63;;;2.42;;
35364;SDS011;21464;48.112;11.530;2023-08-06T05:01:36;2.58;;;2.38;;
35364;SDS011;21464;48.112;11.530;2023-08-06T05:04:02;2.85;;;2.65;;
35364;SDS011;21464;48.112;11.530;2023-08-06T05:06:29;3.78;;;2.83;;
35364;SDS011;21464;48.112;11.530;2023-08-06T05:08:55;2.60;;;2.40;;
35364;SDS011;21464;48.112;11.530;2023-08-06T05:11:21;2.90;;;2.70;;
35364;SDS011;21464;48.112;11.530;2023-08-06T05:13:48;2.53;;;2.35;;
35364;SDS011;21464;48.112;11.530;2023-08-06T05:16:14;2.72;;;2.45;;
35364;SDS011;21464;48.112;11.530;2023-08-06T05:18:40;2.60;;;2.40;;
35364;SDS011;21464;48.112;11.530;2023-08-06T05:21:07;2.70;;;2.50;;
35364;SDS011;21464;48.112;11.530;2023-08-06T05:23:33;3.10;;;2.28;;
35364;SDS011;21464;48.112;11.530;2023-08-06T05:25:59;2.83;;;2.40;;
35364;SDS011;21464;48.112;11.530;2023-08-06T05:28:26;2.42;;;2.22;;
35364;SDS011;21464;48.112;11.530;2023-08-06T05:30:52;2.28;;;2.08;;
35364;SDS011;21464;48.112;11.530;2023-08-06T05:33:18;2.58;;;2.30;;
35364;SDS011;21464;48.112;11.530;2023-08-06T05:35:44;2.55;;;2.30;;
35364;SDS011;21464;48.112;11.530;2023-08-06T05:38:10;2.67;;;2.50;;
35364;SDS011;21464;48.112;11.530;2023-08-06T05:40:37;4.07;;;2.40;;
35364;SDS011;21464;48.112;11.530;2023-08-06T05:43:03;2.38;;;2.10;;
35364;SDS011;21464;48.112;11.530;2023-08-06T05:45:29;3.42;;;2.50;;
35364;SDS011;21464;48.112;11.530;2023-08-06T05:47:56;2.53;;;2.30;;
35364;SDS011;21464;48.112;11.530;2023-08-06T05:50:24;2.35;;;2.15;;
35364;SDS011;21464;48.112;11.530;2023-08-06T05:52:50;2.50;;;2.30;;
35364;SDS011;21464;48.112;11.530;2023-08-06T05:55:17;3.20;;;2.00;;
35364;SDS011;21464;48.112;11.530;2023-08-06T05:57:44;2.13;;;1.92;;
35364;SDS011;21464;48.112;11.530;2023-08-06T06:00:10;2.88;;;2.20;;
35364;SDS011;21464;48.112;11.530;2023-08-06T06:02:40;2.83;;;2.30;;
35364;SDS011;21464;48.112;11.530;2023-08-06T06:05:06;1.90;;;1.80;;
35364;SDS011;21464;48.112;11.530;2023-08-06T06:07:32;2.40;;;2.20;;
35364;SDS011;21464;48.112;11.530;2023-08-06T06:09:59;2.20;;;2.00;;
35364;SDS011;21464;48.112;11.530;2023-08-06T06:12:25;3.00;;;2.55;;
35364;SDS011;21464;48.112;11.530;2023-08-06T06:14:52;1.95;;;1.85;;
35364;SDS011;21464;48.112;11.530;2023-08-06T06:17:18;2.67;;;2.47;;
35364;SDS011;21464;48.112;11.530;2023-08-06T06:19:44;3.13;;;2.00;;
35364;SDS011;21464;48.112;11.530;2023-08-06T06:22:10;2.53;;;2.00;;
35364;SDS011;21464;48.112;11.530;2023-08-06T06:24:36;2.20;;;2.00;;
35364;SDS011;21464;48.112;11.530;2023-08-06T06:27:03;1.70;;;1.60;;
35364;SDS011;21464;48.112;11.530;2023-08-06T06:29:29;2.00;;;1.90;;
35364;SDS011;21464;48.112;11.530;2023-08-06T06:31:55;1.95;;;1.85;;
35364;SDS011;21464;48.112;11.530;2023-08-06T06:34:22;2.03;;;1.90;;
35364;SDS011;21464;48.112;11.530;2023-08-06T06:36:48;1.98;;;1.88;;
35364;SDS011;21464;48.112;11.530;2023-08-06T06:39:15;2.67;;;2.45;;
35364;SDS011;21464;48.112;11.530;2023-08-06T06:41:41;1.70;;;1.60;;
35364;SDS011;21464;48.112;11.530;2023-08-06T06:44:17;2.00;;;1.90;;
35364;SDS011;21464;48.112;11.530;2023-08-06T06:46:45;2.20;;;1.63;;
35364;SDS011;21464;48.112;11.530;2023-08-06T06:49:11;1.60;;;1.50;;
35364;SDS011;21464;48.112;11.530;2023-08-06T06:51:38;2.20;;;2.00;;
35364;SDS011;21464;48.112;11.530;2023-08-06T06:54:04;2.55;;;2.03;;
35364;SDS011;21464;48.112;11.530;2023-08-06T06:56:30;1.92;;;1.67;;
35364;SDS011;21464;48.112;11.530;2023-08-06T06:58:56;1.83;;;1.73;;
35364;SDS011;21464;48.112;11.530;2023-08-06T07:01:22;2.03;;;1.80;;
35364;SDS011;21464;48.112;11.530;2023-08-06T07:03:49;2.03;;;1.60;;
35364;SDS011;21464;48.112;11.530;2023-08-06T07:06:15;1.50;;;1.40;;
35364;SDS011;21464;48.112;11.530;2023-08-06T07:08:41;1.40;;;1.30;;
35364;SDS011;21464;48.112;11.530;2023-08-06T07:11:07;1.27;;;1.17;;
35364;SDS011;21464;48.112;11.530;2023-08-06T07:13:34;1.67;;;1.25;;
35364;SDS011;21464;48.112;11.530;2023-08-06T07:16:01;1.15;;;1.00;;
35364;SDS011;21464;48.112;11.530;2023-08-06T07:18:27;1.20;;;1.05;;
35364;SDS011;21464;48.112;11.530;2023-08-06T07:20:54;1.63;;;1.17;;
35364;SDS011;21464;48.112;11.530;2023-08-06T07:23:21;3.05;;;1.38;;
35364;SDS011;21464;48.112;11.530;2023-08-06T07:25:48;1.30;;;1.20;;
35364;SDS011;21464;48.112;11.530;2023-08-06T07:28:15;1.30;;;1.15;;
35364;SDS011;21464;48.112;11.530;2023-08-06T07:30:42;1.23;;;1.13;;
35364;SDS011;21464;48.112;11.530;2023-08-06T07:33:08;2.05;;;1.23;;
35364;SDS011;21464;48.112;11.530;2023-08-06T07:35:35;1.40;;;1.30;;
35364;SDS011;21464;48.112;11.530;2023-08-06T07:38:01;1.63;;;1.20;;
35364;SDS011;21464;48.112;11.530;2023-08-06T07:40:28;1.88;;;1.48;;
35364;SDS011;21464;48.112;11.530;2023-08-06T07:42:55;1.50;;;1.20;;
35364;SDS011;21464;48.112;11.530;2023-08-06T07:45:21;1.98;;;1.30;;
35364;SDS011;21464;48.112;11.530;2023-08-06T07:47:47;2.08;;;1.20;;
35364;SDS011;21464;48.112;11.530;2023-08-06T07:50:13;2.80;;;1.30;;
35364;SDS011;21464;48.112;11.530;2023-08-06T07:52:39;1.30;;;1.17;;
35364;SDS011;21464;48.112;11.530;2023-08-06T07:55:06;1.80;;;1.58;;
35364;SDS011;21464;48.112;11.530;2023-08-06T07:57:32;2.00;;;1.40;;
35364;SDS011;21464;48.112;11.530;2023-08-06T08:00:00;1.85;;;1.27;;
35364;SDS011;21464;48.112;11.530;2023-08-06T08:02:27;1.65;;;1.33;;
35364;SDS011;21464;48.112;11.530;2023-08-06T08:04:53;3.38;;;1.70;;
35364;SDS011;21464;48.112;11.530;2023-08-06T08:07:20;1.75;;;1.20;;
35364;SDS011;21464;48.112;11.530;2023-08-06T08:09:46;1.40;;;1.30;;
35364;SDS011;21464;48.112;11.530;2023-08-06T08:12:14;1.67;;;1.00;;
35364;SDS011;21464;48.112;11.530;2023-08-06T08:14:40;1.50;;;1.15;;
35364;SDS011;21464;48.112;11.530;2023-08-06T08:17:07;1.20;;;0.95;;
35364;SDS011;21464;48.112;11.530;2023-08-06T08:19:33;0.90;;;0.90;;
35364;SDS011;21464;48.112;11.530;2023-08-06T08:22:00;1.05;;;1.00;;
35364;SDS011;21464;48.112;11.530;2023-08-06T08:24:26;1.33;;;0.80;;
35364;SDS011;21464;48.112;11.530;2023-08-06T08:26:53;1.38;;;0.73;;
35364;SDS011;21464;48.112;11.530;2023-08-06T08:29:19;0.80;;;0.80;;
35364;SDS011;21464;48.112;11.530;2023-08-06T08:31:46;1.02;;;0.77;;
35364;SDS011;21464;48.112;11.530;2023-08-06T08:34:23;1.10;;;0.60;;
35364;SDS011;21464;48.112;11.530;2023-08-06T08:36:49;1.20;;;0.80;;
35364;SDS011;21464;48.112;11.530;2023-08-06T08:39:15;0.70;;;0.70;;
35364;SDS011;21464;48.112;11.530;2023-08-06T08:41:42;1.13;;;1.02;;
35364;SDS011;21464;48.112;11.530;2023-08-06T08:44:08;0.70;;;0.70;;
35364;SDS011;21464;48.112;11.530;2023-08-06T08:46:37;1.27;;;0.73;;
35364;SDS011;21464;48.112;11.530;2023-08-06T08:49:04;0.85;;;0.43;;
35364;SDS011;21464;48.112;11.530;2023-08-06T08:51:31;0.88;;;0.50;;
35364;SDS011;21464;48.112;11.530;2023-08-06T08:53:58;1.08;;;0.55;;
35364;SDS011;21464;48.112;11.530;2023-08-06T08:56:24;0.38;;;0.32;;
35364;SDS011;21464;48.112;11.530;2023-08-06T08:58:50;0.85;;;0.40;;
35364;SDS011;21464;48.112;11.530;2023-08-06T09:01:20;1.20;;;0.50;;
35364;SDS011;21464;48.112;11.530;2023-08-06T09:03:47;0.82;;;0.47;;
35364;SDS011;21464;48.112;11.530;2023-08-06T09:06:14;0.63;;;0.40;;
35364;SDS011;21464;48.112;11.530;2023-08-06T09:08:43;0.50;;;0.50;;
35364;SDS011;21464;48.112;11.530;2023-08-06T09:11:33;0.77;;;0.50;;
35364;SDS011;21464;48.112;11.530;2023-08-06T09:14:06;1.15;;;0.65;;
35364;SDS011;21464;48.112;11.530;2023-08-06T09:16:34;0.40;;;0.40;;
35364;SDS011;21464;48.112;11.530;2023-08-06T09:19:07;1.05;;;0.60;;
35364;SDS011;21464;48.112;11.530;2023-08-06T09:21:46;0.77;;;0.40;;
35364;SDS011;21464;48.112;11.530;2023-08-06T09:24:14;0.40;;;0.40;;
35364;SDS011;21464;48.112;11.530;2023-08-06T09:26:43;0.63;;;0.60;;
35364;SDS011;21464;48.112;11.530;2023-08-06T09:29:10;0.43;;;0.43;;
35364;SDS011;21464;48.112;11.530;2023-08-06T09:31:41;0.40;;;0.40;;
35364;SDS011;21464;48.112;11.530;2023-08-06T09:34:11;0.40;;;0.40;;
35364;SDS011;21464;48.112;11.530;2023-08-06T09:36:46;0.43;;;0.43;;
35364;SDS011;21464;48.112;11.530;2023-08-06T09:39:13;0.73;;;0.50;;
35364;SDS011;21464;48.112;11.530;2023-08-06T09:41:44;2.50;;;0.43;;
35364;SDS011;21464;48.112;11.530;2023-08-06T09:44:17;0.22;;;0.22;;
35364;SDS011;21464;48.112;11.530;2023-08-06T09:46:49;1.45;;;0.50;;
35364;SDS011;21464;48.112;11.530;2023-08-06T09:49:17;0.57;;;0.57;;
35364;SDS011;21464;48.112;11.530;2023-08-06T09:51:45;0.50;;;0.30;;
35364;SDS011;21464;48.112;11.530;2023-08-06T09:54:12;1.88;;;0.40;;
35364;SDS011;21464;48.112;11.530;2023-08-06T09:56:38;0.22;;;0.22;;
35364;SDS011;21464;48.112;11.530;2023-08-06T09:59:05;0.20;;;0.20;;
35364;SDS011;21464;48.112;11.530;2023-08-06T10:01:33;0.30;;;0.30;;
35364;SDS011;21464;48.112;11.530;2023-08-06T10:04:03;0.22;;;0.22;;
35364;SDS011;21464;48.112;11.530;2023-08-06T10:06:34;0.22;;;0.22;;
35364;SDS011;21464;48.112;11.530;2023-08-06T10:09:04;1.60;;;0.30;;
35364;SDS011;21464;48.112;11.530;2023-08-06T10:11:30;0.32;;;0.22;;
35364;SDS011;21464;48.112;11.530;2023-08-06T10:13:58;2.30;;;0.50;;
35364;SDS011;21464;48.112;11.530;2023-08-06T10:16:29;0.40;;;0.40;;
35364;SDS011;21464;48.112;11.530;2023-08-06T10:18:56;0.30;;;0.30;;
35364;SDS011;21464;48.112;11.530;2023-08-06T10:21:25;0.65;;;0.60;;
35364;SDS011;21464;48.112;11.530;2023-08-06T10:23:54;0.20;;;0.20;;
35364;SDS011;21464;48.112;11.530;2023-08-06T10:26:20;0.32;;;0.30;;
35364;SDS011;21464;48.112;11.530;2023-08-06T10:28:46;0.32;;;0.32;;
35364;SDS011;21464;48.112;11.530;2023-08-06T10:31:13;0.40;;;0.40;;
35364;SDS011;21464;48.112;11.530;2023-08-06T10:33:46;0.32;;;0.32;;
35364;SDS011;21464;48.112;11.530;2023-08-06T10:36:13;1.02;;;0.40;;
35364;SDS011;21464;48.112;11.530;2023-08-06T10:38:46;0.25;;;0.22;;
35364;SDS011;21464;48.112;11.530;2023-08-06T10:41:23;2.47;;;0.40;;
35364;SDS011;21464;48.112;11.530;2023-08-06T10:44:06;0.38;;;0.30;;
35364;SDS011;21464;48.112;11.530;2023-08-06T10:46:34;0.20;;;0.20;;
35364;SDS011;21464;48.112;11.530;2023-08-06T10:49:00;0.60;;;0.32;;
35364;SDS011;21464;48.112;11.530;2023-08-06T10:51:26;0.85;;;0.50;;
35364;SDS011;21464;48.112;11.530;2023-08-06T10:53:53;1.45;;;0.28;;
35364;SDS011;21464;48.112;11.530;2023-08-06T10:56:23;0.63;;;0.40;;
35364;SDS011;21464;48.112;11.530;2023-08-06T10:58:54;0.30;;;0.30;;
35364;SDS011;21464;48.112;11.530;2023-08-06T11:01:24;0.20;;;0.20;;
35364;SDS011;21464;48.112;11.530;2023-08-06T11:03:50;0.30;;;0.30;;
35364;SDS011;21464;48.112;11.530;2023-08-06T11:06:22;0.13;;;0.13;;
35364;SDS011;21464;48.112;11.530;2023-08-06T11:08:52;0.40;;;0.30;;
35364;SDS011;21464;48.112;11.530;2023-08-06T11:11:19;0.30;;;0.30;;
35364;SDS011;21464;48.112;11.530;2023-08-06T11:13:46;0.40;;;0.40;;
35364;SDS011;21464;48.112;11.530;2023-08-06T11:16:23;1.85;;;0.30;;
35364;SDS011;21464;48.112;11.530;2023-08-06T11:18:52;0.20;;;0.20;;
35364;SDS011;21464;48.112;11.530;2023-08-06T11:21:20;1.20;;;0.40;;
35364;SDS011;21464;48.112;11.530;2023-08-06T11:23:47;1.15;;;0.30;;
35364;SDS011;21464;48.112;11.530;2023-08-06T11:26:18;0.20;;;0.20;;
35364;SDS011;21464;48.112;11.530;2023-08-06T11:28:44;0.20;;;0.20;;
35364;SDS011;21464;48.112;11.530;2023-08-06T11:31:18;3.20;;;0.30;;
35364;SDS011;21464;48.112;11.530;2023-08-06T11:33:45;1.05;;;0.30;;
35364;SDS011;21464;48.112;11.530;2023-08-06T11:36:11;0.30;;;0.30;;
35364;SDS011;21464;48.112;11.530;2023-08-06T11:38:37;0.43;;;0.30;;
35364;SDS011;21464;48.112;11.530;2023-08-06T11:41:03;0.20;;;0.20;;
35364;SDS011;21464;48.112;11.530;2023-08-06T11:43:30;0.45;;;0.28;;
35364;SDS011;21464;48.112;11.530;2023-08-06T11:45:56;0.22;;;0.22;;
35364;SDS011;21464;48.112;11.530;2023-08-06T11:48:22;0.20;;;0.20;;
35364;SDS011;21464;48.112;11.530;2023-08-06T11:50:49;0.38;;;0.30;;
35364;SDS011;21464;48.112;11.530;2023-08-06T11:53:15;0.20;;;0.20;;
35364;SDS011;21464;48.112;11.530;2023-08-06T11:55:41;0.20;;;0.20;;
35364;SDS011;21464;48.112;11.530;2023-08-06T11:58:09;0.25;;;0.25;;
35364;SDS011;21464;48.112;11.530;2023-08-06T12:00:36;0.30;;;0.30;;
35364;SDS011;21464;48.112;11.530;2023-08-06T12:03:04;0.30;;;0.30;;
35364;SDS011;21464;48.112;11.530;2023-08-06T12:05:31;0.88;;;0.30;;
35364;SDS011;21464;48.112;11.530;2023-08-06T12:07:59;0.47;;;0.20;;
35364;SDS011;21464;48.112;11.530;2023-08-06T12:10:30;0.20;;;0.20;;
35364;SDS011;21464;48.112;11.530;2023-08-06T12:12:57;0.30;;;0.30;;
35364;SDS011;21464;48.112;11.530;2023-08-06T12:15:24;0.30;;;0.30;;
35364;SDS011;21464;48.112;11.530;2023-08-06T12:17:50;0.40;;;0.40;;
35364;SDS011;21464;48.112;11.530;2023-08-06T12:20:16;0.30;;;0.30;;
35364;SDS011;21464;48.112;11.530;2023-08-06T12:22:42;0.20;;;0.20;;
35364;SDS011;21464;48.112;11.530;2023-08-06T12:25:10;0.40;;;0.40;;
35364;SDS011;21464;48.112;11.530;2023-08-06T12:27:38;0.28;;;0.20;;
35364;SDS011;21464;48.112;11.530;2023-08-06T12:30:06;0.30;;;0.30;;
35364;SDS011;21464;48.112;11.530;2023-08-06T12:32:33;0.30;;;0.30;;
35364;SDS011;21464;48.112;11.530;2023-08-06T12:34:59;1.95;;;0.40;;
35364;SDS011;21464;48.112;11.530;2023-08-06T12:37:26;0.20;;;0.20;;
35364;SDS011;21464;48.112;11.530;2023-08-06T12:39:53;1.13;;;0.30;;
35364;SDS011;21464;48.112;11.530;2023-08-06T12:42:19;0.43;;;0.40;;
35364;SDS011;21464;48.112;11.530;2023-08-06T12:44:45;0.30;;;0.30;;
35364;SDS011;21464;48.112;11.530;2023-08-06T12:47:12;0.30;;;0.30;;
35364;SDS011;21464;48.112;11.530;2023-08-06T12:49:38;0.25;;;0.25;;
35364;SDS011;21464;48.112;11.530;2023-08-06T12:52:05;1.63;;;0.30;;
35364;SDS011;21464;48.112;11.530;2023-08-06T12:54:33;1.00;;;0.30;;
35364;SDS011;21464;48.112;11.530;2023-08-06T12:57:02;0.30;;;0.30;;
35364;SDS011;21464;48.112;11.530;2023-08-06T12:59:29;0.30;;;0.30;;
35364;SDS011;21464;48.112;11.530;2023-08-06T13:01:55;0.20;;;0.20;;
35364;SDS011;21464;48.112;11.530;2023-08-06T13:04:21;0.30;;;0.30;;
35364;SDS011;21464;48.112;11.530;2023-08-06T13:06:48;0.20;;;0.20;;
35364;SDS011;21464;48.112;11.530;2023-08-06T13:09:14;0.77;;;0.30;;
35364;SDS011;21464;48.112;11.530;2023-08-06T13:11:41;0.45;;;0.32;;
35364;SDS011;21464;48.112;11.530;2023-08-06T13:14:08;0.43;;;0.40;;
35364;SDS011;21464;48.112;11.530;2023-08-06T13:16:35;0.30;;;0.30;;
35364;SDS011;21464;48.112;11.530;2023-08-06T13:19:02;0.52;;;0.40;;
35364;SDS011;21464;48.112;11.530;2023-08-06T13:21:57;0.30;;;0.30;;
35364;SDS011;21464;48.112;11.530;2023-08-06T13:24:21;0.40;;;0.40;;
35364;SDS011;21464;48.112;11.530;2023-08-06T13:26:47;1.52;;;0.50;;
35364;SDS011;21464;48.112;11.530;2023-08-06T13:29:14;0.40;;;0.40;;
35364;SDS011;21464;48.112;11.530;2023-08-06T13:31:40;0.47;;;0.40;;
35364;SDS011;21464;48.112;11.530;2023-08-06T13:34:06;0.43;;;0.43;;
35364;SDS011;21464;48.112;11.530;2023-08-06T13:36:32;0.50;;;0.50;;
35364;SDS011;21464;48.112;11.530;2023-08-06T13:38:58;0.43;;;0.40;;
35364;SDS011;21464;48.112;11.530;2023-08-06T13:41:24;1.33;;;0.43;;
35364;SDS011;21464;48.112;11.530;2023-08-06T13:43:51;0.20;;;0.20;;
35364;SDS011;21464;48.112;11.530;2023-08-06T13:46:17;0.57;;;0.30;;
35364;SDS011;21464;48.112;11.530;2023-08-06T13:48:45;0.30;;;0.30;;
35364;SDS011;21464;48.112;11.530;2023-08-06T13:51:13;0.20;;;0.20;;
35364;SDS011;21464;48.112;11.530;2023-08-06T13:53:40;0.43;;;0.43;;
35364;SDS011;21464;48.112;11.530;2023-08-06T13:56:07;0.30;;;0.30;;
35364;SDS011;21464;48.112;11.530;2023-08-06T13:58:35;0.30;;;0.30;;
35364;SDS011;21464;48.112;11.530;2023-08-06T14:01:02;0.45;;;0.45;;
35364;SDS011;21464;48.112;11.530;2023-08-06T14:03:28;0.32;;;0.32;;
35364;SDS011;21464;48.112;11.530;2023-08-06T14:05:54;1.10;;;0.47;;
35364;SDS011;21464;48.112;11.530;2023-08-06T14:08:24;0.80;;;0.40;;
35364;SDS011;21464;48.112;11.530;2023-08-06T14:10:51;0.60;;;0.40;;
35364;SDS011;21464;48.112;11.530;2023-08-06T14:13:17;0.40;;;0.40;;
35364;SDS011;21464;48.112;11.530;2023-08-06T14:15:44;0.60;;;0.60;;
35364;SDS011;21464;48.112;11.530;2023-08-06T14:18:13;0.85;;;0.60;;
35364;SDS011;21464;48.112;11.530;2023-08-06T14:20:40;0.85;;;0.85;;
35364;SDS011;21464;48.112;11.530;2023-08-06T14:23:07;0.50;;;0.50;;
35364;SDS011;21464;48.112;11.530;2023-08-06T14:25:33;0.35;;;0.35;;
35364;SDS011;21464;48.112;11.530;2023-08-06T14:27:59;0.38;;;0.38;;
35364;SDS011;21464;48.112;11.530;2023-08-06T14:30:25;0.63;;;0.63;;
35364;SDS011;21464;48.112;11.530;2023-08-06T14:32:52;0.70;;;0.70;;
35364;SDS011;21464;48.112;11.530;2023-08-06T14:35:18;1.80;;;1.08;;
35364;SDS011;21464;48.112;11.530;2023-08-06T14:37:46;0.98;;;0.98;;